createdAt,value
2023-03-27T00:08:46.651Z,5.80
2023-03-27T00:19:12.359Z,4.50
2023-03-27T00:29:38.363Z,4.20
2023-03-27T00:40:08.056Z,7.40
2023-03-27T00:50:37.678Z,8.10
2023-03-27T01:01:03.503Z,10.50
2023-03-27T01:11:46.954Z,8.60
2023-03-27T01:22:42.673Z,8.80
2023-03-27T01:33:38.944Z,9.60
2023-03-27T01:44:11.331Z,9.50
2023-03-27T01:54:41.311Z,9.70
2023-03-27T02:05:12.848Z,10.20
2023-03-27T02:15:42.762Z,10.80
2023-03-27T02:26:10.941Z,8.20
2023-03-27T02:36:45.843Z,8.20
2023-03-27T02:47:16.695Z,8.30
2023-03-27T02:57:59.598Z,7.90
2023-03-27T03:08:30.795Z,9.70
2023-03-27T03:18:56.956Z,9.20
2023-03-27T03:29:22.942Z,9.80
2023-03-27T03:39:49.300Z,8.20
2023-03-27T03:50:16.024Z,10.70
2023-03-27T04:00:43.681Z,13.60
2023-03-27T04:11:09.597Z,18.30
2023-03-27T04:21:36.812Z,17.70
2023-03-27T04:32:03.282Z,18.80
2023-03-27T04:42:29.295Z,15.50
2023-03-27T04:52:59.724Z,17.70
2023-03-27T05:03:26.236Z,15.60
2023-03-27T05:13:52.518Z,15.70
2023-03-27T05:24:19.710Z,15.10
2023-03-27T05:34:46.063Z,9.60
2023-03-27T05:45:13.135Z,12.90
2023-03-27T05:55:39.598Z,9.80
2023-03-27T06:06:10.406Z,8.40
2023-03-27T06:16:36.476Z,7.80
2023-03-27T06:27:03.015Z,7.30
2023-03-27T06:37:28.881Z,9.40
2023-03-27T06:48:12.176Z,11.20
2023-03-27T06:58:42.897Z,9.10
2023-03-27T07:09:09.736Z,8.50
2023-03-27T07:19:36.217Z,8.80
2023-03-27T07:30:02.051Z,9.20
2023-03-27T07:40:38.962Z,8.60
2023-03-27T07:51:13.841Z,12.10
2023-03-27T08:01:41.671Z,11.40
2023-03-27T08:12:08.124Z,11.60
2023-03-27T08:22:33.855Z,12.60
2023-03-27T08:33:00.241Z,15.60
2023-03-27T08:43:29.869Z,16.40
2023-03-27T08:54:06.451Z,18.20
2023-03-27T09:04:41.894Z,14.60
2023-03-27T09:15:14.517Z,8.90
2023-03-27T09:25:46.653Z,7.30
2023-03-27T09:36:13.119Z,11.40
2023-03-27T09:46:41.895Z,10.60
2023-03-27T09:57:12.756Z,7.20
2023-03-27T10:07:39.673Z,6.30
2023-03-27T10:18:08.269Z,4.20
2023-03-27T10:28:39.142Z,4.10
2023-03-27T10:39:07.455Z,4.00
2023-03-27T10:49:39.457Z,2.90
2023-03-27T11:00:12.131Z,3.60
2023-03-27T11:10:41.266Z,3.60
2023-03-27T11:21:12.954Z,5.10
2023-03-27T11:31:46.183Z,3.60
2023-03-27T11:42:19.366Z,4.60
2023-03-27T11:52:57.995Z,3.30
2023-03-27T12:03:55.916Z,2.90
2023-03-27T12:14:46.521Z,3.30
2023-03-27T12:25:36.069Z,3.80
2023-03-27T12:36:06.683Z,3.80
2023-03-27T12:46:40.922Z,2.60
2023-03-27T12:57:15.592Z,2.00
2023-03-27T13:07:53.476Z,1.50
2023-03-27T13:18:43.226Z,2.10
2023-03-27T13:29:18.115Z,1.80
2023-03-27T13:39:48.309Z,2.10
2023-03-27T13:50:33.197Z,2.70
2023-03-27T14:01:10.088Z,2.30
2023-03-27T14:11:48.130Z,2.10
2023-03-27T14:22:22.910Z,1.70
2023-03-27T14:32:50.216Z,2.50
2023-03-27T14:43:18.513Z,3.30
2023-03-27T14:53:46.133Z,2.20
2023-03-27T15:04:13.659Z,2.30
2023-03-27T15:14:41.313Z,2.20
2023-03-27T15:25:17.948Z,1.70
2023-03-27T15:35:47.486Z,1.60
2023-03-27T15:46:21.001Z,2.10
2023-03-27T15:56:47.534Z,1.50
2023-03-27T16:07:21.733Z,2.00
2023-03-27T16:17:48.155Z,1.50
2023-03-27T16:28:17.861Z,1.70
2023-03-27T16:38:44.009Z,1.20
2023-03-27T16:49:12.153Z,2.90
2023-03-27T16:59:37.978Z,1.90
2023-03-27T17:10:04.979Z,2.00
2023-03-27T17:20:31.428Z,1.60
2023-03-27T17:31:04.512Z,2.00
2023-03-27T17:41:32.116Z,2.20
2023-03-27T17:51:57.928Z,2.80
2023-03-27T18:02:24.867Z,3.30
2023-03-27T18:12:50.853Z,5.10
2023-03-27T18:23:16.745Z,4.30
2023-03-27T18:33:42.513Z,4.30
2023-03-27T18:44:08.749Z,5.70
2023-03-27T18:54:34.436Z,6.10
2023-03-27T19:05:00.628Z,4.30
2023-03-27T19:15:26.762Z,4.90
2023-03-27T19:25:53.059Z,7.70
2023-03-27T19:36:19.218Z,8.30
2023-03-27T19:46:44.943Z,5.60
2023-03-27T19:57:11.067Z,6.80
2023-03-27T20:07:36.916Z,11.40
2023-03-27T20:18:04.805Z,7.90
2023-03-27T20:28:31.004Z,7.70
2023-03-27T20:38:59.163Z,7.50
2023-03-27T20:49:40.559Z,6.10
2023-03-27T21:00:11.360Z,5.00
2023-03-27T21:10:38.838Z,7.40
2023-03-27T21:21:05.145Z,7.10
2023-03-27T21:31:31.172Z,8.00
2023-03-27T21:41:57.087Z,6.90
2023-03-27T21:52:22.769Z,7.60
2023-03-27T22:02:49.028Z,6.90
2023-03-27T22:13:14.940Z,7.10
2023-03-27T22:23:41.295Z,9.70
2023-03-27T22:34:07.785Z,7.70
2023-03-27T22:44:33.996Z,14.30
2023-03-27T22:55:00.137Z,17.20
2023-03-27T23:05:26.257Z,12.40
2023-03-27T23:15:52.775Z,15.20
2023-03-27T23:26:18.744Z,12.80
2023-03-27T23:36:44.720Z,11.10
2023-03-27T23:47:11.391Z,11.70
2023-03-27T23:57:36.912Z,15.60
